sensor_id;sensor_type;location;lat;lon;timestamp;P1;P2;P0
50041;PMS7003;44598;51.606;5.912;2023-03-21T00:02:23;15.85;16.14;8.4
50041;PMS7003;44598;51.606;5.912;2023-03-21T00:42:22;20.17;19.41;11.35
50041;PMS7003;44598;51.606;5.912;2023-03-21T01:09:01;22.33;18.76;10.69
50041;PMS7003;44598;51.606;5.912;2023-03-21T01:22:21;17.41;17.99;10.8
50041;PMS7003;44598;51.606;5.912;2023-03-21T01:35:40;16.21;16.25;10.04
50041;PMS7003;44598;51.606;5.912;2023-03-21T01:49:00;16.93;15.6;8.95
50041;PMS7003;44598;51.606;5.912;2023-03-21T02:15:39;11.77;12.87;8.18
50041;PMS7003;44598;51.606;5.912;2023-03-21T02:28:59;11.29;13.2;7.97
50041;PMS7003;44598;51.606;5.912;2023-03-21T02:55:38;14.29;13.74;8.29
50041;PMS7003;44598;51.606;5.912;2023-03-21T03:08:58;13.45;13.85;8.4
50041;PMS7003;44598;51.606;5.912;2023-03-21T03:35:37;13.69;13.42;7.97
50041;PMS7003;44598;51.606;5.912;2023-03-21T03:48:56;12.85;13.96;8.4
50041;PMS7003;44598;51.606;5.912;2023-03-21T04:02:16;12.37;13.2;7.64
50041;PMS7003;44598;51.606;5.912;2023-03-21T04:42:15;12.37;12.54;7.31
50041;PMS7003;44598;51.606;5.912;2023-03-21T04:55:34;12.85;12.54;7.64
50041;PMS7003;44598;51.606;5.912;2023-03-21T05:48:53;13.33;13.2;7.75
50041;PMS7003;44598;51.606;5.912;2023-03-21T06:02:13;12.97;12.87;7.86
50041;PMS7003;44598;51.606;5.912;2023-03-21T06:28:52;11.41;12.54;7.75
50041;PMS7003;44598;51.606;5.912;2023-03-21T06:42:12;10.57;12.11;7.2
50041;PMS7003;44598;51.606;5.912;2023-03-21T07:08:51;12.61;12.54;7.42
50041;PMS7003;44598;51.606;5.912;2023-03-21T07:22:11;7.45;9.17;5.68
50041;PMS7003;44598;51.606;5.912;2023-03-21T07:48:50;8.53;8.84;5.13
50041;PMS7003;44598;51.606;5.912;2023-03-21T08:02:10;8.89;9.93;6.0
50041;PMS7003;44598;51.606;5.912;2023-03-21T08:15:29;9.37;9.93;6.0
50041;PMS7003;44598;51.606;5.912;2023-03-21T08:28:49;11.05;9.93;6.11
50041;PMS7003;44598;51.606;5.912;2023-03-21T08:42:08;10.33;10.58;6.66
50041;PMS7003;44598;51.606;5.912;2023-03-21T10:02:06;9.61;9.82;6.11
50041;PMS7003;44598;51.606;5.912;2023-03-21T10:15:26;9.37;9.49;6.11
50041;PMS7003;44598;51.606;5.912;2023-03-21T10:55:25;7.93;6.99;4.7
50041;PMS7003;44598;51.606;5.912;2023-03-21T11:08:45;6.73;6.55;4.15
50041;PMS7003;44598;51.606;5.912;2023-03-21T11:22:04;5.89;7.2;4.8
50041;PMS7003;44598;51.606;5.912;2023-03-21T11:35:24;5.53;7.42;4.48
50041;PMS7003;44598;51.606;5.912;2023-03-21T11:48:44;6.97;7.09;4.7
50041;PMS7003;44598;51.606;5.912;2023-03-21T13:08:41;2.4;4.8;3.17
50041;PMS7003;44598;51.606;5.912;2023-03-21T13:22:01;4.09;5.46;3.28
50041;PMS7003;44598;51.606;5.912;2023-03-21T13:35:21;4.21;5.79;3.71
50041;PMS7003;44598;51.606;5.912;2023-03-21T13:48:40;3.48;5.79;3.71
50041;PMS7003;44598;51.606;5.912;2023-03-21T14:02:00;3.12;5.57;3.82
50041;PMS7003;44598;51.606;5.912;2023-03-21T14:15:20;3.48;5.46;3.82
50041;PMS7003;44598;51.606;5.912;2023-03-21T14:41:59;2.88;5.57;3.82
50041;PMS7003;44598;51.606;5.912;2023-03-21T14:55:18;3.48;6.0;4.04
50041;PMS7003;44598;51.606;5.912;2023-03-21T15:08:38;2.76;5.57;3.93
50041;PMS7003;44598;51.606;5.912;2023-03-21T15:22:00;2.88;5.57;4.04
50041;PMS7003;44598;51.606;5.912;2023-03-21T15:35:20;2.76;5.68;4.04
50041;PMS7003;44598;51.606;5.912;2023-03-21T16:15:19;1.92;4.91;3.17
50041;PMS7003;44598;51.606;5.912;2023-03-21T16:28:38;1.08;4.15;2.95
50041;PMS7003;44598;51.606;5.912;2023-03-21T16:41:58;2.04;3.93;2.95
50041;PMS7003;44598;51.606;5.912;2023-03-21T16:55:18;2.28;4.37;2.95
50041;PMS7003;44598;51.606;5.912;2023-03-21T17:08:37;1.56;4.48;3.06
50041;PMS7003;44598;51.606;5.912;2023-03-21T17:21:57;5.05;7.31;4.48
50041;PMS7003;44598;51.606;5.912;2023-03-21T17:35:16;4.57;6.88;4.59
50041;PMS7003;44598;51.606;5.912;2023-03-21T17:48:36;4.57;6.99;4.7
50041;PMS7003;44598;51.606;5.912;2023-03-21T18:15:15;6.61;7.97;5.35
50041;PMS7003;44598;51.606;5.912;2023-03-21T18:55:14;4.21;6.99;4.91
50041;PMS7003;44598;51.606;5.912;2023-03-21T19:08:34;5.17;7.42;5.02
50041;PMS7003;44598;51.606;5.912;2023-03-21T19:35:13;8.53;10.69;6.88
50041;PMS7003;44598;51.606;5.912;2023-03-21T19:48:33;9.37;10.91;6.99
50041;PMS7003;44598;51.606;5.912;2023-03-21T20:01:52;10.45;11.89;7.75
50041;PMS7003;44598;51.606;5.912;2023-03-21T20:15:12;11.17;13.2;8.51
50041;PMS7003;44598;51.606;5.912;2023-03-21T20:28:31;10.93;13.2;8.51
50041;PMS7003;44598;51.606;5.912;2023-03-21T20:41:51;9.85;12.22;7.64
50041;PMS7003;44598;51.606;5.912;2023-03-21T20:55:11;7.81;10.26;6.55
50041;PMS7003;44598;51.606;5.912;2023-03-21T21:21:50;8.29;10.69;6.66
50041;PMS7003;44598;51.606;5.912;2023-03-21T21:35:10;7.69;10.04;6.66
50041;PMS7003;44598;51.606;5.912;2023-03-21T21:48:29;8.53;10.58;7.09
50041;PMS7003;44598;51.606;5.912;2023-03-21T22:01:49;9.49;11.35;7.09
50041;PMS7003;44598;51.606;5.912;2023-03-21T22:15:09;10.09;11.45;7.64
50041;PMS7003;44598;51.606;5.912;2023-03-21T22:28:28;9.61;12.0;7.75
50041;PMS7003;44598;51.606;5.912;2023-03-21T22:41:48;6.49;8.84;5.24
50041;PMS7003;44598;51.606;5.912;2023-03-21T23:08:27;6.73;7.97;5.68
50041;PMS7003;44598;51.606;5.912;2023-03-21T23:21:47;11.17;12.22;7.97
50041;PMS7003;44598;51.606;5.912;2023-03-21T23:35:06;12.85;13.96;8.73
50041;PMS7003;44598;51.606;5.912;2023-03-21T23:48:26;12.01;13.74;9.17
